AIRPORT ID: 3S8

DATE: 2018-10-29 ZULU TIME: 18.55 LOCAL TIME: 11.55


METAR K3S8 291855Z AUTO 00000KT 10SM 12/11 A3033

ALTIMETER: A3033 Q1027

DENSITY ALT: 700 Ft

WIND DIRECT: 240

WIND SPEED: 0 Gust

WIND CONDITIONS:

VISIBILTY: 10SM 9999M

TEMPERATURE: 54 F 12 C

DEW POINT: 51 F 11 C

HUMID: 90%

LCL: 500-1,000 feet

RADIO CHECK: 0

ADVISARIES: 1

GREETINGS: 0

CONVERSATIONS: 0